Time;durP1;ratioP1;P1;durP2;ratioP2;P2;SDS_P1;SDS_P2;PMS_P1;PMS_P2;Temp;Humidity;BMP_temperature;BMP_pressure;BME280_temperature;BME280_humidity;BME280_pressure;Samples;Min_cycle;Max_cycle;Signal;HPM_P1;HPM_P2
2023/02/09 00:00:11;;;;;;;16.80;6.60;;;;;;;-7.85;100.00;97248.81;1031012;28;20403;-67
2023/02/09 00:00:47;;;;;;;15.68;7.32;;;;;;;-7.86;100.00;97248.00;1026845;28;20061;-66
2023/02/09 00:01:19;;;;;;;17.73;7.20;;;;;;;-7.87;100.00;97248.94;1025841;28;20042;-69
2023/02/09 00:01:50;;;;;;;14.95;7.05;;;;;;;-7.88;100.00;97239.69;1026733;28;20113;-66
2023/02/09 00:02:20;;;;;;;15.00;6.97;;;;;;;-7.86;100.00;97242.91;1029026;28;20027;-67
2023/02/09 00:02:51;;;;;;;17.27;7.80;;;;;;;-7.87;100.00;97236.19;1039144;28;20022;-65
2023/02/09 00:03:21;;;;;;;16.90;8.73;;;;;;;-7.85;100.00;97234.38;1038540;28;20022;-66
2023/02/09 00:03:52;;;;;;;16.37;8.53;;;;;;;-7.84;100.00;97240.28;1039167;28;20560;-68
2023/02/09 00:04:22;;;;;;;21.60;10.17;;;;;;;-7.87;100.00;97232.84;1038849;28;20036;-65
2023/02/09 00:04:53;;;;;;;20.47;9.60;;;;;;;-7.85;100.00;97239.47;1030716;28;20109;-66
2023/02/09 00:05:23;;;;;;;22.63;9.40;;;;;;;-7.84;100.00;97241.06;1030951;28;20054;-66
2023/02/09 00:05:54;;;;;;;21.77;9.90;;;;;;;-7.84;100.00;97238.53;1026944;28;20077;-66
2023/02/09 00:06:25;;;;;;;23.87;10.50;;;;;;;-7.84;100.00;97238.53;1030687;28;20667;-67
2023/02/09 00:06:55;;;;;;;24.80;11.75;;;;;;;-7.87;100.00;97236.19;1026246;28;20019;-65
2023/02/09 00:07:26;;;;;;;22.47;9.73;;;;;;;-7.80;100.00;97248.50;1031097;28;20037;-67
2023/02/09 00:07:56;;;;;;;25.60;11.17;;;;;;;-7.80;100.00;97236.56;1034997;28;20574;-67
2023/02/09 00:08:27;;;;;;;21.17;10.07;;;;;;;-7.84;100.00;97235.19;1034822;28;20034;-65
2023/02/09 00:08:57;;;;;;;23.53;9.83;;;;;;;-7.82;100.00;97240.94;1026915;28;20046;-66
2023/02/09 00:09:28;;;;;;;19.40;9.90;;;;;;;-7.85;100.00;97239.47;1026815;28;20527;-69
2023/02/09 00:09:59;;;;;;;23.20;9.70;;;;;;;-7.84;100.00;97245.38;1022832;28;20070;-65
2023/02/09 00:10:29;;;;;;;20.43;9.57;;;;;;;-7.87;100.00;97240.50;1022967;28;20074;-70
2023/02/09 00:11:03;;;;;;;22.20;10.13;;;;;;;-7.89;100.00;97238.03;1026840;28;20250;-68
2023/02/09 00:13:21;;;;;;;22.13;9.65;;;;;;;-7.95;100.00;97238.47;1025317;28;20278;-67
2023/02/09 00:13:54;;;;;;;27.75;10.52;;;;;;;-7.98;100.00;97233.63;1020819;29;20028;-64
2023/02/09 00:14:25;;;;;;;24.58;11.02;;;;;;;-7.98;100.00;97231.06;1026764;28;20125;-65
2023/02/09 00:14:55;;;;;;;20.57;8.87;;;;;;;-7.99;100.00;97242.16;1028242;28;20633;-66
2023/02/09 00:15:26;;;;;;;23.10;10.23;;;;;;;-8.07;100.00;97224.91;1034129;28;20598;-68
2023/02/09 00:16:00;;;;;;;22.40;9.17;;;;;;;-8.03;100.00;97240.78;1030828;28;20046;-65
2023/02/09 00:16:30;;;;;;;22.17;9.30;;;;;;;-8.02;100.00;97242.38;1022811;29;20042;-67
2023/02/09 00:17:01;;;;;;;24.30;10.20;;;;;;;-8.03;100.00;97235.69;1022038;29;20690;-65
2023/02/09 00:17:32;;;;;;;22.33;8.77;;;;;;;-8.04;100.00;97236.59;1027344;28;20050;-67
2023/02/09 00:18:03;;;;;;;23.20;10.00;;;;;;;-8.06;100.00;97233.34;1026350;28;20114;-67
2023/02/09 00:18:33;;;;;;;24.83;9.37;;;;;;;-8.07;100.00;97235.09;1023056;29;20560;-68
2023/02/09 00:19:04;;;;;;;27.97;10.70;;;;;;;-8.07;100.00;97236.81;1029439;28;20035;-65
2023/02/09 00:19:34;;;;;;;23.30;8.47;;;;;;;-8.09;100.00;97236.09;1034973;28;20025;-68
2023/02/09 00:20:06;;;;;;;17.87;8.47;;;;;;;-8.07;100.00;97236.81;1034985;28;20095;-65
2023/02/09 00:20:36;;;;;;;18.13;7.93;;;;;;;-8.04;100.00;97236.59;1031570;28;20069;-67
2023/02/09 00:21:09;;;;;;;16.50;7.23;;;;;;;-8.11;100.00;97228.59;1030531;28;20100;-67
2023/02/09 00:21:40;;;;;;;20.13;7.03;;;;;;;-8.08;100.00;97236.00;1035003;28;20077;-66
2023/02/09 00:22:10;;;;;;;15.93;7.60;;;;;;;-8.07;100.00;97236.81;1030864;28;20487;-68
2023/02/09 00:22:41;;;;;;;13.43;6.73;;;;;;;-8.08;100.00;97236.00;1026949;28;20038;-68
2023/02/09 00:23:11;;;;;;;16.00;7.00;;;;;;;-8.16;100.00;97220.44;1026965;28;20062;-66
2023/02/09 00:23:42;;;;;;;16.00;7.27;;;;;;;-8.12;100.00;97223.59;1026897;28;20023;-68
2023/02/09 00:24:12;;;;;;;13.67;6.37;;;;;;;-8.06;100.00;97238.44;1030789;28;20068;-69
2023/02/09 00:24:43;;;;;;;15.00;7.07;;;;;;;-8.03;100.00;97237.41;1035105;28;20026;-66
2023/02/09 00:25:14;;;;;;;24.67;7.13;;;;;;;-7.98;100.00;97236.19;1034829;28;20033;-66
2023/02/09 00:25:44;;;;;;;16.90;6.83;;;;;;;-7.96;100.00;97239.41;1030712;28;20050;-70
2023/02/09 00:26:15;;;;;;;14.47;6.50;;;;;;;-7.91;100.00;97239.09;1027022;28;20030;-67
2023/02/09 00:26:48;;;;;;;13.65;6.32;;;;;;;-7.89;100.00;97240.59;1026818;28;20023;-68
2023/02/09 00:27:18;;;;;;;15.83;6.57;;;;;;;-7.89;100.00;97232.13;1030739;28;20026;-68
2023/02/09 00:27:49;;;;;;;13.20;6.33;;;;;;;-7.89;100.00;97232.94;1034980;28;20491;-66
2023/02/09 00:28:19;;;;;;;14.57;6.40;;;;;;;-7.87;100.00;97243.03;1034968;28;20029;-65
2023/02/09 00:28:50;;;;;;;15.63;6.67;;;;;;;-7.87;100.00;97241.28;1039068;28;20119;-68
2023/02/09 00:29:22;;;;;;;16.23;6.50;;;;;;;-7.86;100.00;97237.81;1037412;28;20021;-67
2023/02/09 00:29:53;;;;;;;13.20;6.28;;;;;;;-8.04;100.00;97215.44;1030797;28;20034;-66
2023/02/09 00:30:23;;;;;;;16.10;6.73;;;;;;;-7.90;100.00;97230.53;1034532;28;20025;-67
2023/02/09 00:30:54;;;;;;;14.83;6.13;;;;;;;-7.84;100.00;97237.72;1035090;28;20510;-65
2023/02/09 00:31:24;;;;;;;12.60;5.80;;;;;;;-7.84;100.00;97235.97;1038853;28;20018;-67
2023/02/09 00:31:55;;;;;;;13.23;6.07;;;;;;;-7.84;100.00;97230.09;1034979;28;20649;-67
2023/02/09 00:32:25;;;;;;;14.53;7.00;;;;;;;-7.78;100.00;97239.00;1026620;28;20035;-65
2023/02/09 00:32:56;;;;;;;11.70;5.80;;;;;;;-7.75;100.00;97233.69;1026710;28;20042;-65
2023/02/09 00:33:26;;;;;;;16.03;6.83;;;;;;;-7.73;100.00;97234.38;1026715;28;20038;-67
2023/02/09 00:33:57;;;;;;;14.60;6.20;;;;;;;-7.78;100.00;97224.50;1026878;28;20426;-67
2023/02/09 00:34:27;;;;;;;15.50;6.30;;;;;;;-7.70;100.00;97231.63;1034914;28;20515;-65
2023/02/09 00:34:58;;;;;;;12.80;6.10;;;;;;;-7.68;100.00;97237.41;1030880;28;20142;-64
2023/02/09 00:35:28;;;;;;;13.30;5.43;;;;;;;-7.67;100.00;97231.41;1030816;28;20034;-69
2023/02/09 00:35:58;;;;;;;12.10;5.90;;;;;;;-7.64;100.00;97236.28;1032261;28;20054;-67
2023/02/09 00:36:29;;;;;;;13.17;5.77;;;;;;;-7.67;100.00;97221.22;1030742;28;20029;-67
2023/02/09 00:37:00;;;;;;;12.10;5.63;;;;;;;-7.62;100.00;97239.50;1030205;28;20058;-65
2023/02/09 00:37:30;;;;;;;13.77;6.17;;;;;;;-7.63;100.00;97233.59;1030721;28;20050;-67
2023/02/09 00:38:00;;;;;;;13.50;6.30;;;;;;;-7.64;100.00;97231.19;1030795;28;20049;-67
2023/02/09 00:38:31;;;;;;;12.67;5.83;;;;;;;-7.62;100.00;97231.88;1026728;28;20031;-67
2023/02/09 00:39:01;;;;;;;13.27;5.97;;;;;;;-7.63;100.00;97243.00;1023016;28;20027;-65
2023/02/09 00:39:35;;;;;;;13.17;6.80;;;;;;;-7.64;100.00;97237.09;1033579;28;20045;-67
2023/02/09 00:40:06;;;;;;;14.27;6.55;;;;;;;-7.63;100.00;97231.06;1031013;28;20543;-64
2023/02/09 00:40:37;;;;;;;14.20;6.20;;;;;;;-7.69;100.00;97223.03;1030822;28;20022;-66
2023/02/09 00:41:08;;;;;;;13.32;5.47;;;;;;;-7.63;100.00;97227.69;1025875;28;21283;-68
2023/02/09 00:42:30;;;;;;;15.90;6.10;;;;;;;-7.66;100.00;97235.56;1033495;28;20092;-65
2023/02/09 00:43:01;;;;;;;15.57;6.18;;;;;;;-7.68;100.00;97229.75;1029659;28;20030;-69
2023/02/09 00:43:32;;;;;;;15.27;6.27;;;;;;;-7.68;100.00;97230.59;1023904;28;20027;-64
2023/02/09 00:44:02;;;;;;;13.00;5.73;;;;;;;-7.68;100.00;97235.69;1018713;29;20034;-67
2023/02/09 00:44:33;;;;;;;13.50;5.70;;;;;;;-7.75;100.00;97226.03;1016947;29;20028;-67
2023/02/09 00:45:04;;;;;;;13.25;6.25;;;;;;;-7.72;100.00;97233.47;1023126;28;20042;-64
2023/02/09 00:45:35;;;;;;;12.60;6.43;;;;;;;-7.72;100.00;97233.47;1023297;28;20058;-68
2023/02/09 00:46:05;;;;;;;11.20;6.10;;;;;;;-7.72;100.00;97229.16;1030617;28;20320;-66
2023/02/09 00:46:36;;;;;;;11.90;5.23;;;;;;;-7.72;100.00;97228.38;1034342;28;20053;-63
2023/02/09 00:47:06;;;;;;;12.73;5.90;;;;;;;-7.76;100.00;97221.88;1030670;28;20058;-66
2023/02/09 00:47:37;;;;;;;12.03;6.10;;;;;;;-7.74;100.00;97225.94;1026838;28;20030;-67
2023/02/09 00:48:07;;;;;;;14.13;5.87;;;;;;;-7.73;100.00;97231.84;1022597;29;20043;-65
2023/02/09 00:48:38;;;;;;;13.33;6.07;;;;;;;-7.76;100.00;97229.53;1026855;28;20112;-69
2023/02/09 00:49:09;;;;;;;12.93;6.50;;;;;;;-7.75;100.00;97226.84;1026921;28;20046;-67
2023/02/09 00:49:39;;;;;;;13.70;5.93;;;;;;;-7.76;100.00;97234.63;1030835;28;20073;-66
2023/02/09 00:50:10;;;;;;;12.50;5.73;;;;;;;-7.82;100.00;97221.38;1030400;28;20030;-65
2023/02/09 00:50:40;;;;;;;14.27;6.63;;;;;;;-7.80;100.00;97230.66;1034982;28;20018;-66
2023/02/09 00:51:11;;;;;;;15.10;5.60;;;;;;;-7.80;100.00;97230.66;1034740;28;20048;-67
2023/02/09 00:51:41;;;;;;;9.67;5.43;;;;;;;-7.83;100.00;97232.50;1030894;28;20030;-67
2023/02/09 00:52:12;;;;;;;13.20;5.90;;;;;;;-7.84;100.00;97230.88;1034596;28;20041;-65
2023/02/09 00:52:42;;;;;;;15.47;5.60;;;;;;;-7.82;100.00;97233.31;1034777;28;20399;-65
2023/02/09 00:53:12;;;;;;;13.60;6.03;;;;;;;-7.84;100.00;97230.88;1034847;28;20177;-67
2023/02/09 00:53:43;;;;;;;14.97;6.40;;;;;;;-7.87;100.00;97228.56;1038948;28;20087;-65
2023/02/09 00:54:15;;;;;;;11.90;5.80;;;;;;;-7.83;100.00;97229.97;1030711;28;20077;-68
2023/02/09 00:54:46;;;;;;;14.13;6.10;;;;;;;-7.84;100.00;97230.09;1034633;28;20495;-65
2023/02/09 00:55:16;;;;;;;14.00;6.57;;;;;;;-7.91;100.00;97219.53;1026753;28;20039;-64
2023/02/09 00:55:47;;;;;;;12.93;6.27;;;;;;;-7.91;100.00;97219.53;1030808;28;20026;-67
2023/02/09 00:56:17;;;;;;;13.33;6.87;;;;;;;-7.87;100.00;97227.75;1022221;28;20069;-68
2023/02/09 00:56:48;;;;;;;13.13;6.70;;;;;;;-7.92;100.00;97228.06;1022147;28;20055;-68
2023/02/09 00:57:18;;;;;;;10.93;5.30;;;;;;;-7.93;100.00;97225.66;1030961;28;20034;-67
2023/02/09 00:57:49;;;;;;;13.77;6.00;;;;;;;-7.94;100.00;97229.94;1034879;28;20610;-67
2023/02/09 00:58:19;;;;;;;10.70;5.60;;;;;;;-7.98;100.00;97222.59;1038601;28;20034;-66
2023/02/09 00:58:50;;;;;;;9.93;5.33;;;;;;;-7.95;100.00;97223.19;1034682;28;20021;-68
2023/02/09 00:59:20;;;;;;;16.30;6.43;;;;;;;-8.03;100.00;97217.84;1034784;28;20028;-65
2023/02/09 00:59:51;;;;;;;9.80;5.80;;;;;;;-7.99;100.00;97226.88;1026454;28;20030;-65
2023/02/09 01:00:21;;;;;;;13.83;5.83;;;;;;;-8.01;100.00;97223.66;1026545;28;20030;-68
2023/02/09 01:00:52;;;;;;;11.67;6.10;;;;;;;-8.02;100.00;97227.09;1020931;29;20027;-70
2023/02/09 01:01:22;;;;;;;16.47;6.00;;;;;;;-8.02;100.00;97228.84;1018803;28;20035;-65
2023/02/09 01:01:53;;;;;;;13.13;6.63;;;;;;;-8.04;100.00;97228.97;1038823;28;20442;-68
2023/02/09 01:02:23;;;;;;;14.00;6.30;;;;;;;-8.05;100.00;97232.41;1038609;28;20030;-67
2023/02/09 01:02:55;;;;;;;12.47;5.90;;;;;;;-8.05;100.00;97229.88;1030548;28;20081;-65
2023/02/09 01:03:26;;;;;;;12.07;4.90;;;;;;;-8.05;100.00;97232.41;1030868;28;20042;-67
2023/02/09 01:03:56;;;;;;;13.97;6.03;;;;;;;-8.05;100.00;97232.41;1030735;28;20441;-63
2023/02/09 01:04:27;;;;;;;13.07;5.20;;;;;;;-8.12;100.00;97221.84;1034257;28;20057;-65
2023/02/09 01:04:57;;;;;;;12.77;6.20;;;;;;;-8.06;100.00;97235.88;1040304;28;20682;-65
2023/02/09 01:05:28;;;;;;;10.87;5.37;;;;;;;-8.08;100.00;97228.38;1034843;28;20096;-71
2023/02/09 01:05:58;;;;;;;12.87;6.33;;;;;;;-8.07;100.00;97234.28;1034810;28;20049;-69
2023/02/09 01:06:28;;;;;;;14.47;6.67;;;;;;;-8.13;100.00;97224.53;1018849;29;20638;-66
2023/02/09 01:06:59;;;;;;;13.30;5.33;;;;;;;-8.08;100.00;97232.63;1021921;28;20035;-70
2023/02/09 01:07:29;;;;;;;13.93;6.10;;;;;;;-8.15;100.00;97222.09;1020818;28;20032;-65
2023/02/09 01:08:03;;;;;;;13.53;6.43;;;;;;;-8.09;100.00;97228.47;1030809;28;20026;-67
2023/02/09 01:08:33;;;;;;;13.25;5.78;;;;;;;-8.10;100.00;97229.41;1030790;28;20038;-65
2023/02/09 01:09:04;;;;;;;13.40;6.07;;;;;;;-8.08;100.00;97232.63;1026693;28;20038;-69
2023/02/09 01:09:34;;;;;;;13.10;6.30;;;;;;;-8.12;100.00;97226.13;1030315;28;20058;-68
2023/02/09 01:10:05;;;;;;;10.97;5.50;;;;;;;-8.17;100.00;97218.03;1026903;28;20432;-65
2023/02/09 01:10:36;;;;;;;11.87;5.50;;;;;;;-8.13;100.00;97224.53;1026445;28;20070;-65
2023/02/09 01:11:08;;;;;;;11.65;5.57;;;;;;;-8.22;100.00;97215.78;1025728;28;20034;-68
2023/02/09 01:11:38;;;;;;;14.02;6.82;;;;;;;-8.14;100.00;97220.38;1030812;28;20018;-65
2023/02/09 01:12:09;;;;;;;13.90;6.17;;;;;;;-8.14;100.00;97221.16;1030834;28;20058;-64
2023/02/09 01:12:40;;;;;;;12.87;6.20;;;;;;;-8.19;100.00;97207.94;1038865;28;20577;-66
2023/02/09 01:13:10;;;;;;;14.13;6.00;;;;;;;-8.15;100.00;97222.09;1032908;28;20026;-69
2023/02/09 01:13:41;;;;;;;12.90;5.67;;;;;;;-8.16;100.00;97219.66;1038419;28;20033;-64
2023/02/09 01:14:11;;;;;;;11.53;6.13;;;;;;;-8.14;100.00;97223.72;1034518;28;20018;-66
2023/02/09 01:14:45;;;;;;;12.63;6.03;;;;;;;-8.13;100.00;97224.53;1030492;28;20280;-70
2023/02/09 01:15:16;;;;;;;12.98;6.13;;;;;;;-8.14;100.00;97215.28;1029953;28;20504;-68
2023/02/09 01:15:46;;;;;;;12.93;6.45;;;;;;;-8.09;100.00;97225.91;1033408;28;20053;-66
2023/02/09 01:16:19;;;;;;;13.63;6.10;;;;;;;-8.07;100.00;97226.63;1034644;28;20030;-67
2023/02/09 01:16:50;;;;;;;14.63;5.57;;;;;;;-8.08;100.00;97227.53;1029910;28;20018;-68
2023/02/09 01:17:20;;;;;;;12.93;5.83;;;;;;;-8.08;100.00;97218.19;1021923;28;20032;-66
2023/02/09 01:17:51;;;;;;;16.47;6.40;;;;;;;-8.09;100.00;97221.63;1019101;29;20060;-65
2023/02/09 01:18:22;;;;;;;15.40;6.07;;;;;;;-8.09;100.00;97226.72;1022827;29;20031;-67
2023/02/09 01:18:52;;;;;;;12.07;5.83;;;;;;;-8.09;100.00;97226.72;1019484;28;20039;-71
2023/02/09 01:19:23;;;;;;;12.70;6.17;;;;;;;-8.11;100.00;97227.78;1026526;28;20026;-66
2023/02/09 01:19:54;;;;;;;12.00;5.93;;;;;;;-8.11;100.00;97222.69;1026694;28;20022;-66
2023/02/09 01:20:24;;;;;;;12.57;5.75;;;;;;;-8.17;100.00;97223.13;1034940;28;20022;-68
2023/02/09 01:20:55;;;;;;;11.53;6.10;;;;;;;-8.14;100.00;97228.81;1034727;28;20446;-65
2023/02/09 01:21:26;;;;;;;10.97;5.73;;;;;;;-8.15;100.00;97224.66;1034664;28;20021;-68
2023/02/09 01:21:56;;;;;;;13.60;5.77;;;;;;;-8.16;100.00;97224.75;1030811;28;20050;-66
2023/02/09 01:22:27;;;;;;;13.17;5.90;;;;;;;-8.14;100.00;97226.25;1022602;28;20135;-66
2023/02/09 01:22:57;;;;;;;16.27;6.53;;;;;;;-8.16;100.00;97227.28;1022729;29;20410;-65
2023/02/09 01:23:28;;;;;;;14.30;5.93;;;;;;;-8.15;100.00;97226.34;1030617;28;20018;-66
2023/02/09 01:23:58;;;;;;;13.23;6.40;;;;;;;-8.14;100.00;97220.38;1030602;28;20138;-66
2023/02/09 01:24:29;;;;;;;13.73;6.07;;;;;;;-8.11;100.00;97225.25;1034684;28;20141;-67
2023/02/09 01:24:59;;;;;;;11.87;5.73;;;;;;;-8.11;100.00;97222.69;1034694;28;20394;-65
2023/02/09 01:25:30;;;;;;;12.87;5.97;;;;;;;-8.13;100.00;97219.44;1026541;28;20625;-65
2023/02/09 01:26:01;;;;;;;13.77;6.57;;;;;;;-8.12;100.00;97221.84;1022520;28;20019;-66
2023/02/09 01:26:32;;;;;;;13.27;5.93;;;;;;;-8.16;100.00;97214.56;1019078;28;20440;-67
2023/02/09 01:27:02;;;;;;;16.63;6.53;;;;;;;-8.12;100.00;97221.84;1034104;28;20143;-68
2023/02/09 01:27:33;;;;;;;15.07;5.83;;;;;;;-8.09;100.00;97218.28;1034711;28;20653;-68
2023/02/09 01:28:03;;;;;;;14.13;6.93;;;;;;;-8.07;100.00;97224.09;1030918;28;20034;-67
2023/02/09 01:28:34;;;;;;;13.70;6.43;;;;;;;-8.17;100.00;97206.09;1030652;28;20534;-64
2023/02/09 01:29:05;;;;;;;11.87;5.87;;;;;;;-8.07;100.00;97221.53;1030555;28;20034;-69
2023/02/09 01:29:35;;;;;;;11.30;5.93;;;;;;;-8.05;100.00;97214.59;1030957;28;20264;-67
2023/02/09 01:30:06;;;;;;;15.60;7.03;;;;;;;-8.03;100.00;97212.75;1030793;28;20256;-67
2023/02/09 01:30:37;;;;;;;15.13;6.70;;;;;;;-8.05;100.00;97214.59;1030817;28;20100;-68
2023/02/09 01:31:25;;;;;;;15.43;6.47;;;;;;;-8.02;100.00;97216.13;1030536;28;20282;-67
2023/02/09 01:31:56;;;;;;;13.23;5.95;;;;;;;-8.03;100.00;97210.22;1024200;28;20026;-68
2023/02/09 01:32:26;;;;;;;14.63;6.37;;;;;;;-8.01;100.00;97218.56;1021218;29;20357;-66
2023/02/09 01:32:57;;;;;;;14.43;6.13;;;;;;;-8.01;100.00;97218.56;1022855;28;20035;-69
2023/02/09 01:33:28;;;;;;;11.33;6.10;;;;;;;-8.00;100.00;97210.00;1027911;28;20019;-65
2023/02/09 01:33:59;;;;;;;15.70;6.57;;;;;;;-7.99;100.00;97213.34;1034745;28;20026;-66
2023/02/09 01:34:29;;;;;;;12.85;6.28;;;;;;;-7.97;100.00;97214.88;1034519;28;20061;-67
2023/02/09 01:35:00;;;;;;;15.10;5.90;;;;;;;-7.97;100.00;97208.97;1030225;28;20030;-66
2023/02/09 01:35:33;;;;;;;15.43;6.13;;;;;;;-7.96;100.00;97213.94;1030437;28;20026;-65
2023/02/09 01:36:04;;;;;;;17.00;6.03;;;;;;;-7.97;100.00;97214.88;1030315;28;20030;-64
2023/02/09 01:36:34;;;;;;;12.50;6.30;;;;;;;-7.97;100.00;97212.31;1026423;28;20030;-62
2023/02/09 01:37:05;;;;;;;13.23;6.07;;;;;;;-7.96;100.00;97210.59;1025957;28;20094;-68
2023/02/09 01:37:35;;;;;;;13.40;6.03;;;;;;;-7.94;100.00;97213.84;1022602;29;20604;-66
2023/02/09 01:38:06;;;;;;;14.63;6.50;;;;;;;-7.94;100.00;97209.56;1022613;28;20060;-68
2023/02/09 01:38:36;;;;;;;13.80;6.23;;;;;;;-7.94;100.00;97209.56;1022500;29;20046;-65
2023/02/09 01:39:07;;;;;;;11.90;5.87;;;;;;;-7.92;100.00;97207.69;1022540;29;20035;-65
2023/02/09 01:39:37;;;;;;;12.73;6.13;;;;;;;-7.96;100.00;97206.28;1026329;28;20023;-65
2023/02/09 01:40:08;;;;;;;15.07;6.40;;;;;;;-7.91;100.00;97209.34;1030401;28;20030;-67
2023/02/09 01:40:48;;;;;;;17.80;6.30;;;;;;;-7.92;100.00;97205.16;1026372;28;20023;-65
2023/02/09 01:41:19;;;;;;;13.93;6.03;;;;;;;-7.97;100.00;97203.88;1022991;28;20457;-65
2023/02/09 01:41:49;;;;;;;15.67;5.93;;;;;;;-7.93;100.00;97205.28;1025760;28;20085;-67
2023/02/09 01:42:20;;;;;;;11.67;5.47;;;;;;;-8.07;100.00;97180.81;1022415;28;20516;-66
2023/02/09 01:42:50;;;;;;;11.63;5.70;;;;;;;-7.94;100.00;97204.47;1024303;28;20038;-66
2023/02/09 01:43:20;;;;;;;14.27;6.10;;;;;;;-7.90;100.00;97205.84;1022533;28;20425;-66
2023/02/09 01:43:51;;;;;;;12.57;6.23;;;;;;;-7.87;100.00;97209.94;1026649;28;20023;-68
2023/02/09 01:44:21;;;;;;;12.20;5.87;;;;;;;-7.88;100.00;97204.03;1034179;28;20018;-66
2023/02/09 01:45:19;;;;;;;14.40;6.90;;;;;;;-7.88;100.00;97204.03;1030589;28;20026;-65
2023/02/09 01:45:53;;;;;;;12.65;5.55;;;;;;;-7.93;100.00;97198.44;1038174;28;20049;-67
2023/02/09 01:46:25;;;;;;;12.18;5.40;;;;;;;-7.87;100.00;97197.19;1030260;28;20026;-65
2023/02/09 01:46:55;;;;;;;11.52;5.78;;;;;;;-7.88;100.00;97203.19;1029752;28;20393;-65
2023/02/09 01:47:26;;;;;;;13.30;5.83;;;;;;;-7.85;100.00;97202.97;1030548;28;20085;-65
2023/02/09 01:47:58;;;;;;;13.97;6.53;;;;;;;-7.91;100.00;97194.06;1024379;28;20113;-67
2023/02/09 01:48:29;;;;;;;14.07;5.97;;;;;;;-7.90;100.00;97195.66;1018710;29;20122;-67
2023/02/09 01:49:06;;;;;;;12.13;6.00;;;;;;;-7.90;100.00;97190.56;1026428;28;20015;-65
2023/02/09 01:49:37;;;;;;;16.38;5.75;;;;;;;-7.90;100.00;97193.13;1024310;28;20027;-65
2023/02/09 01:50:10;;;;;;;14.03;5.80;;;;;;;-7.82;100.00;97198.44;1022349;29;20031;-66
2023/02/09 01:50:42;;;;;;;11.13;5.80;;;;;;;-7.81;100.00;97196.75;1018420;29;20030;-65
2023/02/09 01:51:13;;;;;;;12.57;6.13;;;;;;;-7.78;100.00;97199.03;1022251;29;20035;-65
2023/02/09 01:51:50;;;;;;;13.33;6.43;;;;;;;-7.76;100.00;97201.50;1030456;28;20484;-66
2023/02/09 01:52:22;;;;;;;12.65;5.80;;;;;;;-7.76;100.00;97206.59;1032218;28;20064;-67
2023/02/09 01:52:53;;;;;;;18.88;5.75;;;;;;;-7.81;100.00;97191.66;1022273;29;20027;-66
2023/02/09 01:53:23;;;;;;;11.57;5.53;;;;;;;-7.73;100.00;97202.06;1026508;28;20031;-66
2023/02/09 01:53:53;;;;;;;13.37;5.87;;;;;;;-7.74;100.00;97209.84;1034684;28;20100;-66
2023/02/09 01:54:52;;;;;;;13.17;6.40;;;;;;;-7.77;100.00;97202.44;1034501;28;20108;-66
2023/02/09 01:55:24;;;;;;;13.77;6.15;;;;;;;-7.80;100.00;97189.91;1026204;28;20034;-66
2023/02/09 01:56:02;;;;;;;14.13;5.63;;;;;;;-7.78;100.00;97203.31;1018448;29;20028;-67
2023/02/09 01:56:32;;;;;;;15.35;6.03;;;;;;;-7.79;100.00;97202.53;1018239;29;20063;-65
2023/02/09 01:57:08;;;;;;;12.23;6.07;;;;;;;-7.79;100.00;97202.53;1021605;29;20035;-65
2023/02/09 01:57:45;;;;;;;10.90;5.82;;;;;;;-7.84;100.00;97189.31;1014521;29;20032;-67
2023/02/09 01:58:16;;;;;;;10.88;5.25;;;;;;;-7.78;100.00;97195.69;1030005;28;20057;-64
2023/02/09 01:58:46;;;;;;;13.65;6.22;;;;;;;-7.77;100.00;97200.69;1026321;28;20793;-67
2023/02/09 01:59:17;;;;;;;13.37;6.20;;;;;;;-7.78;100.00;97196.50;1022109;28;20058;-66
2023/02/09 01:59:53;;;;;;;13.23;6.27;;;;;;;-7.79;100.00;97196.63;1022519;28;20020;-65
2023/02/09 02:00:23;;;;;;;14.55;6.20;;;;;;;-7.76;100.00;97201.50;1031034;28;20018;-68
2023/02/09 02:00:54;;;;;;;13.00;6.00;;;;;;;-7.75;100.00;97198.00;1026310;28;20584;-65
2023/02/09 02:01:24;;;;;;;18.50;7.47;;;;;;;-7.82;100.00;97193.38;1015050;29;20028;-68
2023/02/09 02:01:55;;;;;;;13.77;6.33;;;;;;;-7.79;100.00;97197.44;1018583;29;20028;-67
2023/02/09 02:02:25;;;;;;;11.47;5.83;;;;;;;-7.88;100.00;97183.66;1018408;29;20114;-66
2023/02/09 02:02:59;;;;;;;12.43;6.13;;;;;;;-7.80;100.00;97200.91;1026735;28;20275;-66
2023/02/09 02:03:30;;;;;;;15.75;5.80;;;;;;;-7.80;100.00;97197.56;1030304;28;20030;-68
2023/02/09 02:04:00;;;;;;;16.10;6.43;;;;;;;-7.83;100.00;97199.38;1030517;28;20022;-65
2023/02/09 02:04:32;;;;;;;11.30;5.57;;;;;;;-7.85;100.00;97187.69;1025825;28;20050;-66
2023/02/09 02:05:03;;;;;;;12.63;6.20;;;;;;;-7.87;100.00;97190.34;1022273;28;20023;-66
2023/02/09 02:05:36;;;;;;;19.42;6.03;;;;;;;-7.82;100.00;97195.91;1030269;28;20057;-65
2023/02/09 02:06:11;;;;;;;15.13;5.93;;;;;;;-7.84;100.00;97190.13;1030424;28;20033;-66
2023/02/09 02:06:41;;;;;;;16.02;6.60;;;;;;;-7.79;100.00;97194.88;1022590;28;20118;-65
2023/02/09 02:07:18;;;;;;;12.63;6.27;;;;;;;-7.85;100.00;97187.69;1018331;29;20032;-68
2023/02/09 02:08:04;;;;;;;11.52;5.60;;;;;;;-7.86;100.00;97191.97;1025834;28;20085;-67
2023/02/09 02:08:38;;;;;;;14.25;5.60;;;;;;;-7.85;100.00;97191.06;1031922;28;20058;-65
2023/02/09 02:09:11;;;;;;;13.60;5.95;;;;;;;-7.89;100.00;97192.19;1026372;28;20035;-64
2023/02/09 02:09:42;;;;;;;9.98;5.63;;;;;;;-7.91;100.00;97196.59;1035622;28;20114;-63
2023/02/09 02:10:12;;;;;;;10.53;5.43;;;;;;;-7.98;100.00;97182.69;1029373;28;20030;-64
2023/02/09 02:10:43;;;;;;;12.80;5.97;;;;;;;-7.96;100.00;97196.09;1017472;29;20024;-64
2023/02/09 02:11:13;;;;;;;14.77;6.37;;;;;;;-8.01;100.00;97193.09;1018385;29;20024;-68
2023/02/09 02:11:45;;;;;;;16.10;5.97;;;;;;;-8.11;100.00;97180.22;1030092;28;20165;-65
2023/02/09 02:12:15;;;;;;;14.60;5.93;;;;;;;-8.06;100.00;97190.06;1036495;28;20128;-67
2023/02/09 02:12:46;;;;;;;14.57;5.83;;;;;;;-8.08;100.00;97186.78;1034261;28;20832;-65
2023/02/09 02:13:16;;;;;;;13.87;6.03;;;;;;;-8.08;100.00;97192.72;1024583;28;20038;-69
2023/02/09 02:13:47;;;;;;;13.70;5.97;;;;;;;-8.09;100.00;97188.53;1030055;28;20058;-65
2023/02/09 02:14:43;;;;;;;14.43;6.13;;;;;;;-8.13;100.00;97189.69;1030368;28;20015;-67
2023/02/09 02:15:13;;;;;;;16.13;6.05;;;;;;;-8.13;100.00;97183.78;1027480;28;20066;-66
2023/02/09 02:16:01;;;;;;;12.47;5.50;;;;;;;-8.15;100.00;97178.81;1030171;28;20042;-68
2023/02/09 02:16:45;;;;;;;15.50;6.50;;;;;;;-8.18;100.00;97180.75;1030181;28;20026;-67
2023/02/09 02:17:38;;;;;;;15.70;5.70;;;;;;;-8.27;100.00;97163.59;1026236;28;20022;-66
2023/02/09 02:18:17;;;;;;;13.63;5.38;;;;;;;-8.24;100.00;97182.00;1030240;28;20026;-67
2023/02/09 02:18:59;;;;;;;10.90;5.03;;;;;;;-8.22;100.00;97174.25;1026095;28;20022;-66
2023/02/09 02:19:49;;;;;;;15.18;5.60;;;;;;;-8.22;100.00;97172.53;1031474;28;20022;-65
2023/02/09 02:20:40;;;;;;;15.30;6.75;;;;;;;-8.22;100.00;97175.06;1034220;28;20014;-66
2023/02/09 02:21:50;;;;;;;11.57;5.35;;;;;;;-8.25;100.00;97182.91;1033142;28;20017;-65
2023/02/09 02:22:23;;;;;;;11.00;4.93;;;;;;;-8.26;100.00;97180.50;1027408;28;20050;-66
2023/02/09 02:23:05;;;;;;;17.40;6.30;;;;;;;-8.28;100.00;97169.59;1031041;28;20029;-64
2023/02/09 02:23:47;;;;;;;16.75;5.43;;;;;;;-8.30;100.00;97175.63;1030275;28;20018;-64
2023/02/09 02:25:02;;;;;;;13.00;5.97;;;;;;;-8.35;100.00;97169.22;1038920;28;20124;-66
2023/02/09 02:26:18;;;;;;;14.77;5.72;;;;;;;-8.42;100.00;97168.88;1031210;28;20029;-67
2023/02/09 02:27:03;;;;;;;13.43;5.63;;;;;;;-8.49;100.00;97166.88;1010361;29;20028;-67
2023/02/09 02:28:11;;;;;;;18.92;6.53;;;;;;;-8.46;100.00;97167.47;1017344;29;20028;-65
2023/02/09 02:29:07;;;;;;;12.32;5.47;;;;;;;-8.49;100.00;97167.69;1015088;29;20107;-65
2023/02/09 02:30:04;;;;;;;11.57;5.07;;;;;;;-8.54;100.00;97167.22;1017368;29;20102;-66
2023/02/09 02:31:03;;;;;;;11.93;4.65;;;;;;;-8.57;100.00;97164.91;1016402;29;20031;-67
2023/02/09 02:31:42;;;;;;;13.43;5.60;;;;;;;-8.59;100.00;97164.19;1029588;28;20041;-64
2023/02/09 02:32:24;;;;;;;16.30;5.80;;;;;;;-8.61;100.00;97164.31;1031297;28;20014;-67
2023/02/09 02:32:57;;;;;;;13.18;5.85;;;;;;;-8.62;100.00;97164.41;1039383;28;20021;-64
2023/02/09 02:33:45;;;;;;;18.20;6.03;;;;;;;-8.63;100.00;97161.03;1035199;28;20021;-65
2023/02/09 02:34:20;;;;;;;14.10;6.78;;;;;;;-8.63;100.00;97163.59;1034968;28;20018;-65